^^

..:: Storico WU ::..




Lo storico viene creato da WUnderground con i dati che la stazione Meteomincio invia al loro server. L' aggiornamento viene fatto ogni 5 minuti circa, tuttavia possono esserci intervalli pi¨ ampi a causa di errori, interruzioni di servizio o problemi nell' invio tramite FTP.


Storico stazione MeteoMincio
 
Giorno Sommario per Aprile 22, 2024 Unità:  Metrico    Inglese   Entrambi
Giorno Settimana Mese Anno
  Corrente: Max: Min: Media:
Temperatura: 5.5 °C 8.3 °C 5.5 °C 6.6 °C
Dew Point: 4.6 °C 5.9 °C 4.6 °C 5.1 °C
Umidità: 94% 94% 81% 90%
Velocità vento: 7.5km/h 36.3km/h 2.3km/h 17.7km/h
Raffica: 13km/h 64.9km/h - -
DirezioneNW - - East
Pressione: 1013.0 hPa 1015.1 hPa 1011.5 hPa -
Precipitazioni: 23.4 mm      
 
 
Tabulato Dati per Aprile 22, 2024
Ora Temperatura Dew Point Pressione Direzione Velocità vento Raffica Umidità Intensità pioggia (oraria) Info solare Situazione
00:04 8.2 °C 5.3 °C 1015.0 hPa ESE 4.5 km/h 16.1 km/h 82% 0.0 mm 0 W/m2
00:09 8.2 °C 5.3 °C 1015.0 hPa East 8.2 km/h 16.7 km/h 82% 0.0 mm 0 W/m2
00:14 8.2 °C 5.3 °C 1015.0 hPa East 5.6 km/h 16.1 km/h 82% 0.0 mm 0 W/m2
00:19 8.2 °C 5.3 °C 1015.0 hPa East 5.1 km/h 12.9 km/h 82% 0.0 mm 0 W/m2
00:24 8.2 °C 5.3 °C 1015.0 hPa ESE 7.7 km/h 13 km/h 82% 0.0 mm 0 W/m2
00:29 8.2 °C 5.3 °C 1015.0 hPa East 7.9 km/h 16.7 km/h 81.7% 0.0 mm 0 W/m2
00:34 8.3 °C 5.4 °C 1015.0 hPa East 7.8 km/h 16.1 km/h 82% 0.0 mm 0 W/m2
00:39 8.3 °C 5.4 °C 1015.0 hPa East 6 km/h 13 km/h 82% 0.0 mm 0 W/m2
00:44 8.3 °C 5.4 °C 1015.0 hPa East 6 km/h 12.9 km/h 82% 0.0 mm 0 W/m2
00:49 8.3 °C 5.4 °C 1015.0 hPa East 7.2 km/h 14.8 km/h 82% 0.0 mm 0 W/m2
00:54 8.3 °C 5.4 °C 1015.1 hPa East 7 km/h 16.1 km/h 82% 0.0 mm 0 W/m2
00:59 8.3 °C 5.4 °C 1015.0 hPa East 8.2 km/h 16.7 km/h 82% 0.0 mm 0 W/m2
01:04 8.3 °C 5.5 °C 1015.1 hPa East 8.2 km/h 20.9 km/h 82% 0.0 mm 0 W/m2
01:09 8.3 °C 5.3 °C 1014.9 hPa East 10.6 km/h 22.5 km/h 81.2% 0.0 mm 0 W/m2
01:14 8.3 °C 5.3 °C 1014.9 hPa ESE 3.9 km/h 22.5 km/h 81.8% 0.0 mm 0 W/m2
01:19 8.2 °C 5.3 °C 1014.8 hPa ESE 9.7 km/h 18.5 km/h 81.6% 0.0 mm 0 W/m2
01:24 8.2 °C 5.2 °C 1014.8 hPa East 12 km/h 19.3 km/h 81% 0.0 mm 0 W/m2
01:29 8.3 °C 5.3 °C 1014.9 hPa ENE 10.4 km/h 19.3 km/h 81.5% 0.0 mm 0 W/m2
01:34 8.2 °C 5.3 °C 1014.9 hPa East 11.2 km/h 25.9 km/h 82% 0.0 mm 0 W/m2
01:39 8.2 °C 5.5 °C 1014.9 hPa ESE 9.4 km/h 25.7 km/h 83% 0.0 mm 0 W/m2
01:44 8.1 °C 5.4 °C 1014.8 hPa East 10.9 km/h 19.3 km/h 83% 0.0 mm 0 W/m2
01:49 8.1 °C 5.3 °C 1014.8 hPa East 9.8 km/h 19.3 km/h 82.8% 0.2 mm 0 W/m2
01:54 8 °C 5.5 °C 1014.7 hPa East 10.2 km/h 16.7 km/h 83.9% 0.2 mm 0 W/m2
01:59 7.9 °C 5.4 °C 1014.6 hPa East 8.3 km/h 16.7 km/h 84% 0.2 mm 0 W/m2
02:04 7.9 °C 5.5 °C 1014.6 hPa ENE 8.5 km/h 14.8 km/h 85% 0.2 mm 0 W/m2
02:09 7.8 °C 5.4 °C 1014.5 hPa East 7.3 km/h 14.5 km/h 85% 0.2 mm 0 W/m2
02:14 7.7 °C 5.4 °C 1014.4 hPa ENE 8.2 km/h 13 km/h 85.5% 0.2 mm 0 W/m2
02:19 7.6 °C 5.5 °C 1014.4 hPa ENE 6.8 km/h 13 km/h 86% 0.4 mm 0 W/m2
02:24 7.6 °C 5.4 °C 1014.3 hPa ENE 6.9 km/h 13 km/h 86% 0.4 mm 0 W/m2
02:29 7.5 °C 5.4 °C 1014.2 hPa East 8.7 km/h 14.5 km/h 86% 0.4 mm 0 W/m2
02:34 7.5 °C 5.3 °C 1014.2 hPa East 7.7 km/h 14.8 km/h 86% 0.4 mm 0 W/m2
02:39 7.5 °C 5.4 °C 1014.2 hPa East 6.7 km/h 14.8 km/h 86% 0.4 mm 0 W/m2
02:44 7.5 °C 5.3 °C 1014.1 hPa East 11.4 km/h 20.9 km/h 85.7% 0.4 mm 0 W/m2
02:49 7.6 °C 5.1 °C 1014.0 hPa East 11.2 km/h 20.9 km/h 84.4% 0.4 mm 0 W/m2
02:54 7.7 °C 5.1 °C 1014.0 hPa East 10.2 km/h 19.3 km/h 84% 0.2 mm 0 W/m2
02:59 7.7 °C 5.2 °C 1014.0 hPa East 8.6 km/h 19.3 km/h 84% 0.2 mm 0 W/m2
03:04 7.7 °C 5.2 °C 1014.0 hPa East 9.5 km/h 20.9 km/h 84.2% 0.2 mm 0 W/m2
03:09 7.7 °C 5.2 °C 1014.0 hPa East 9.9 km/h 20.9 km/h 84.3% 0.4 mm 0 W/m2
03:14 7.7 °C 5.3 °C 1014.0 hPa ENE 9.2 km/h 19.3 km/h 85% 0.4 mm 0 W/m2
03:19 7.7 °C 5.3 °C 1013.9 hPa ENE 10.7 km/h 20.9 km/h 85% 0.4 mm 0 W/m2
03:24 7.6 °C 5.4 °C 1013.9 hPa ENE 9.6 km/h 20.9 km/h 85.6% 0.2 mm 0 W/m2
03:29 7.6 °C 5.4 °C 1013.9 hPa ENE 9 km/h 16.7 km/h 86% 0.4 mm 0 W/m2
03:34 7.5 °C 5.5 °C 1013.9 hPa NE 7.4 km/h 16.1 km/h 86.9% 0.4 mm 0 W/m2
03:39 7.5 °C 5.6 °C 1013.9 hPa NE 6.8 km/h 14.5 km/h 87.7% 0.4 mm 0 W/m2
03:44 7.5 °C 5.7 °C 1013.8 hPa NE 6.2 km/h 11.3 km/h 88.5% 0.6 mm 0 W/m2
03:49 7.5 °C 5.7 °C 1013.7 hPa NE 6 km/h 9.7 km/h 89% 0.6 mm 0 W/m2
03:54 7.4 °C 5.8 °C 1013.7 hPa NE 7.1 km/h 14.8 km/h 90% 0.8 mm 0 W/m2
03:59 7.4 °C 5.8 °C 1013.7 hPa ENE 6.6 km/h 14.5 km/h 90% 0.8 mm 0 W/m2
04:04 7.3 °C 5.8 °C 1013.6 hPa NE 9.2 km/h 18.5 km/h 90% 0.8 mm 0 W/m2
04:09 7.3 °C 5.8 °C 1013.6 hPa NE 11.1 km/h 19.3 km/h 90.5% 1.0 mm 0 W/m2
04:14 7.2 °C 5.8 °C 1013.6 hPa NE 8.7 km/h 19.3 km/h 90.8% 0.8 mm 0 W/m2
04:19 7.3 °C 5.9 °C 1013.6 hPa NE 10.4 km/h 16.7 km/h 91% 1.0 mm 0 W/m2
04:24 7.3 °C 5.9 °C 1013.5 hPa NE 8.5 km/h 16.1 km/h 91% 1.0 mm 0 W/m2
04:29 7.3 °C 5.9 °C 1013.5 hPa NE 11.4 km/h 20.9 km/h 91% 1.0 mm 0 W/m2
04:34 7.3 °C 5.9 °C 1013.5 hPa NE 14.6 km/h 24.1 km/h 91% 1.0 mm 0 W/m2
04:39 7.2 °C 5.8 °C 1013.4 hPa ENE 15.8 km/h 29 km/h 91.1% 1.0 mm 0 W/m2
04:44 7.1 °C 5.7 °C 1013.4 hPa NE 20.4 km/h 33.8 km/h 91% 1.2 mm 0 W/m2
04:49 7 °C 5.6 °C 1013.3 hPa NE 22.5 km/h 42.6 km/h 90.6% 1.0 mm 0 W/m2
04:54 7 °C 5.4 °C 1013.2 hPa ENE 20.5 km/h 41.8 km/h 90% 1.0 mm 0 W/m2
04:59 6.9 °C 5.4 °C 1013.2 hPa ENE 21.6 km/h 37 km/h 90.2% 1.0 mm 0 W/m2
05:04 6.9 °C 5.4 °C 1013.1 hPa ENE 18.9 km/h 37 km/h 90.5% 1.2 mm 0 W/m2
05:09 6.8 °C 5.4 °C 1013.1 hPa ENE 18.6 km/h 32.2 km/h 90.9% 1.2 mm 0 W/m2
05:14 6.8 °C 5.4 °C 1013.0 hPa ENE 19.4 km/h 35.4 km/h 91% 1.0 mm 0 W/m2
05:19 6.8 °C 5.4 °C 1013.0 hPa ENE 20 km/h 35.4 km/h 91% 1.0 mm 0 W/m2
05:24 6.7 °C 5.3 °C 1012.9 hPa ENE 16.8 km/h 33.8 km/h 91% 1.0 mm 0 W/m2
05:29 6.7 °C 5.3 °C 1012.9 hPa ENE 19.4 km/h 29.6 km/h 91% 1.0 mm 0 W/m2
05:34 6.7 °C 5.3 °C 1012.8 hPa ENE 16.7 km/h 29 km/h 91.3% 1.0 mm 0 W/m2
05:39 6.6 °C 5.2 °C 1012.7 hPa ENE 17.3 km/h 31.5 km/h 91% 1.0 mm 0 W/m2
05:44 6.6 °C 5.2 °C 1012.6 hPa ENE 16.8 km/h 32.2 km/h 91% 1.0 mm 0 W/m2
05:49 6.6 °C 5.3 °C 1012.6 hPa ENE 19.4 km/h 33.8 km/h 91.3% 0.8 mm 0 W/m2
05:54 6.6 °C 5.2 °C 1012.6 hPa ENE 22.4 km/h 35.4 km/h 91% 0.8 mm 0 W/m2
05:59 6.6 °C 5.2 °C 1012.6 hPa NE 22.6 km/h 38.6 km/h 91% 0.6 mm 0 W/m2
06:04 6.5 °C 5.2 °C 1012.6 hPa ENE 24.9 km/h 38.9 km/h 91% 0.8 mm 0 W/m2
06:09 6.5 °C 5.2 °C 1012.6 hPa ENE 21.5 km/h 40.2 km/h 91% 0.6 mm 0 W/m2
06:14 6.5 °C 5.1 °C 1012.6 hPa ENE 23.6 km/h 40.7 km/h 91% 0.6 mm 0 W/m2
06:19 6.5 °C 5.1 °C 1012.7 hPa ENE 23 km/h 38.6 km/h 91% 0.6 mm 0 W/m2
06:24 6.5 °C 5.1 °C 1012.7 hPa ENE 22.5 km/h 42.6 km/h 91% 0.6 mm 0 W/m2
06:29 6.5 °C 5.1 °C 1012.8 hPa ENE 24.6 km/h 43.5 km/h 91% 0.4 mm 0 W/m2
06:34 6.5 °C 5.1 °C 1012.8 hPa ENE 20.7 km/h 43.5 km/h 91% 0.4 mm 0 W/m2
06:39 6.5 °C 5.1 °C 1012.8 hPa ENE 24.4 km/h 50.1 km/h 91% 0.4 mm 0 W/m2
06:44 6.5 °C 5.1 °C 1012.8 hPa NE 24.3 km/h 49.9 km/h 91% 0.2 mm 0 W/m2
06:49 6.4 °C 5 °C 1012.8 hPa NE 25.8 km/h 45.1 km/h 91% 0.4 mm 0 W/m2
06:54 6.2 °C 4.9 °C 1012.8 hPa ENE 25.9 km/h 46.7 km/h 91% 0.4 mm 0 W/m2
06:59 6.2 °C 4.8 °C 1012.7 hPa NE 23.3 km/h 46.7 km/h 91% 0.4 mm 0 W/m2
07:04 6.1 °C 4.8 °C 1012.6 hPa ENE 22.4 km/h 40.2 km/h 91% 0.4 mm 5 W/m2
07:09 6.1 °C 4.8 °C 1012.6 hPa ENE 18.8 km/h 38.6 km/h 91% 0.4 mm 7 W/m2
07:14 6.1 °C 4.8 °C 1012.6 hPa ENE 20.5 km/h 38.6 km/h 92% 0.6 mm 9 W/m2
07:19 6 °C 4.8 °C 1012.6 hPa ENE 23.1 km/h 38.9 km/h 92% 0.6 mm 9 W/m2
07:24 6 °C 4.8 °C 1012.5 hPa NE 19.5 km/h 38.6 km/h 92% 0.6 mm 9 W/m2
07:29 6 °C 4.8 °C 1012.5 hPa ENE 21.1 km/h 42.6 km/h 92% 0.8 mm 11 W/m2
07:34 6 °C 4.8 °C 1012.6 hPa ENE 17.8 km/h 41.8 km/h 92% 0.8 mm 12 W/m2
07:39 6 °C 4.8 °C 1012.6 hPa ENE 22 km/h 38.9 km/h 91.8% 1.0 mm 14 W/m2
07:44 6 °C 4.8 °C 1012.6 hPa NE 19.8 km/h 38.6 km/h 92% 1.0 mm 18 W/m2
07:49 6 °C 4.8 °C 1012.6 hPa NE 20.1 km/h 35.4 km/h 92% 1.0 mm 25 W/m2
07:54 6 °C 4.7 °C 1012.6 hPa NE 19.2 km/h 35.4 km/h 91.7% 1.0 mm 28 W/m2
07:59 6 °C 4.7 °C 1012.6 hPa NE 20.8 km/h 42.6 km/h 91.4% 1.0 mm 32 W/m2
08:04 6 °C 4.7 °C 1012.6 hPa ENE 20.9 km/h 42.6 km/h 91.5% 1.2 mm 33 W/m2
08:09 6 °C 4.7 °C 1012.5 hPa ENE 23.1 km/h 41.8 km/h 91.3% 1.0 mm 30 W/m2
08:14 6 °C 4.7 °C 1012.6 hPa ENE 22.2 km/h 40.7 km/h 91.6% 1.2 mm 26 W/m2
08:19 6 °C 4.8 °C 1012.6 hPa ENE 21.3 km/h 38.6 km/h 92% 1.0 mm 16 W/m2
08:24 6 °C 4.8 °C 1012.7 hPa ENE 18.3 km/h 37 km/h 92% 1.2 mm 11 W/m2
08:29 6 °C 4.8 °C 1012.7 hPa ENE 20.4 km/h 38.9 km/h 92% 1.2 mm 14 W/m2
08:34 6.1 °C 4.9 °C 1012.7 hPa ENE 21.6 km/h 40.7 km/h 92% 1.0 mm 19 W/m2
08:39 6.1 °C 4.9 °C 1012.7 hPa ENE 21.5 km/h 40.2 km/h 92% 1.2 mm 23 W/m2
08:44 6.2 °C 4.9 °C 1012.7 hPa ENE 24.6 km/h 43.5 km/h 91.5% 1.2 mm 25 W/m2
08:49 6.3 °C 4.9 °C 1012.6 hPa ENE 24.8 km/h 43.5 km/h 91% 1.2 mm 25 W/m2
08:54 6.3 °C 4.9 °C 1012.7 hPa ENE 26.2 km/h 43.5 km/h 91% 1.4 mm 23 W/m2
08:59 6.3 °C 4.9 °C 1012.6 hPa ENE 25.7 km/h 42.6 km/h 91% 1.4 mm 21 W/m2
09:04 6.3 °C 4.9 °C 1012.6 hPa ENE 26.7 km/h 50.1 km/h 91% 1.4 mm 21 W/m2
09:09 6.3 °C 4.9 °C 1012.6 hPa ENE 26.6 km/h 49.9 km/h 91% 1.6 mm 21 W/m2
09:14 6.3 °C 4.9 °C 1012.6 hPa ENE 27.3 km/h 48.3 km/h 91% 1.6 mm 23 W/m2
09:19 6.2 °C 4.9 °C 1012.5 hPa ENE 27.7 km/h 48.3 km/h 91% 1.6 mm 25 W/m2
09:24 6.2 °C 4.8 °C 1012.7 hPa ENE 31.1 km/h 53.8 km/h 91% 1.6 mm 21 W/m2
09:29 6.1 °C 4.8 °C 1012.8 hPa ENE 28.7 km/h 53.1 km/h 91% 1.8 mm 21 W/m2
09:34 6.1 °C 4.7 °C 1012.7 hPa ENE 29.1 km/h 48.3 km/h 91% 2.0 mm 25 W/m2
09:39 6 °C 4.7 °C 1012.8 hPa ENE 26.3 km/h 48.3 km/h 91% 2.0 mm 26 W/m2
09:44 6 °C 4.8 °C 1012.9 hPa ENE 28.3 km/h 43.5 km/h 91.8% 2.2 mm 32 W/m2
09:49 6 °C 4.8 °C 1012.9 hPa ENE 24.5 km/h 43.5 km/h 91.9% 2.2 mm 42 W/m2
09:54 6 °C 4.8 °C 1012.9 hPa ENE 26.5 km/h 40.7 km/h 92% 2.2 mm 44 W/m2
09:59 6 °C 4.7 °C 1012.8 hPa ENE 26.2 km/h 40.2 km/h 92% 2.2 mm 44 W/m2
10:04 5.9 °C 4.7 °C 1012.8 hPa ENE 28.6 km/h 42.6 km/h 92% 2.4 mm 46 W/m2
10:09 6 °C 4.8 °C 1012.8 hPa ENE 21.2 km/h 41.8 km/h 92% 2.2 mm 44 W/m2
10:14 6 °C 4.8 °C 1012.8 hPa ENE 25.4 km/h 38.9 km/h 92% 2.4 mm 42 W/m2
10:19 6 °C 4.8 °C 1012.7 hPa ENE 23.7 km/h 41.8 km/h 92% 2.4 mm 49 W/m2
10:24 6 °C 4.8 °C 1012.7 hPa ENE 27 km/h 48.3 km/h 92% 2.4 mm 49 W/m2
10:29 6.1 °C 4.8 °C 1012.7 hPa ENE 24.1 km/h 48.3 km/h 92% 2.4 mm 51 W/m2
10:34 6.1 °C 4.9 °C 1012.7 hPa ENE 25.4 km/h 50.1 km/h 92% 2.4 mm 51 W/m2
10:39 6.1 °C 4.9 °C 1012.9 hPa ENE 22.6 km/h 49.9 km/h 92% 2.4 mm 39 W/m2
10:44 6.2 °C 4.9 °C 1012.9 hPa ENE 22 km/h 43.5 km/h 92% 2.2 mm 46 W/m2
10:49 6.2 °C 5 °C 1013.0 hPa ENE 26.3 km/h 49.9 km/h 92% 2.4 mm 51 W/m2
10:54 6.2 °C 5 °C 1013.0 hPa ENE 23.3 km/h 50.1 km/h 92% 2.4 mm 51 W/m2
10:59 6.3 °C 5.1 °C 1013.1 hPa ENE 21.6 km/h 42.6 km/h 92% 2.4 mm 46 W/m2
11:04 6.3 °C 5.1 °C 1013.1 hPa ENE 20.5 km/h 37 km/h 92% 2.4 mm 37 W/m2
11:09 6.3 °C 5.1 °C 1013.1 hPa ENE 23.9 km/h 38.9 km/h 92% 2.4 mm 47 W/m2
11:14 6.3 °C 5 °C 1013.1 hPa ENE 28.8 km/h 45.1 km/h 91.9% 2.4 mm 49 W/m2
11:19 6.3 °C 5 °C 1013.0 hPa ENE 24.5 km/h 49.9 km/h 91.5% 2.4 mm 70 W/m2
11:24 6.3 °C 5 °C 1013.1 hPa ENE 24 km/h 50.1 km/h 91% 2.4 mm 77 W/m2
11:29 6.4 °C 5.1 °C 1013.1 hPa ENE 23.6 km/h 49.9 km/h 91.5% 2.6 mm 76 W/m2
11:34 6.3 °C 4.9 °C 1013.0 hPa ENE 25.2 km/h 50.1 km/h 91% 2.6 mm 90 W/m2
11:39 6.3 °C 5 °C 1012.9 hPa ENE 27.7 km/h 49.9 km/h 91% 2.6 mm 84 W/m2
11:44 6.4 °C 5 °C 1012.8 hPa ENE 23 km/h 43.5 km/h 91% 2.6 mm 84 W/m2
11:49 6.4 °C 5 °C 1012.9 hPa ENE 24 km/h 45.1 km/h 91% 2.4 mm 77 W/m2
11:54 6.4 °C 5 °C 1012.9 hPa ENE 28.3 km/h 51.8 km/h 91% 2.2 mm 60 W/m2
11:59 6.4 °C 5 °C 1013.0 hPa ENE 23.2 km/h 51.5 km/h 90.8% 2.2 mm 51 W/m2
12:04 6.4 °C 5 °C 1012.9 hPa ENE 23.3 km/h 43.5 km/h 90.7% 2.2 mm 47 W/m2
12:09 6.4 °C 4.9 °C 1012.8 hPa ENE 24.5 km/h 49.9 km/h 90.5% 2.2 mm 56 W/m2
12:14 6.3 °C 4.8 °C 1012.6 hPa ENE 30.4 km/h 50.1 km/h 90% 2.2 mm 76 W/m2
12:19 6.3 °C 4.8 °C 1012.6 hPa ENE 33.2 km/h 50.1 km/h 89.8% 2.2 mm 76 W/m2
12:24 6.4 °C 4.8 °C 1012.6 hPa ENE 28.4 km/h 49.9 km/h 89.8% 2.0 mm 72 W/m2
12:29 6.4 °C 4.9 °C 1012.5 hPa ENE 23.8 km/h 46.7 km/h 90% 2.0 mm 81 W/m2
12:34 6.4 °C 4.9 °C 1012.5 hPa ENE 22.6 km/h 43.5 km/h 90% 1.8 mm 76 W/m2
12:39 6.5 °C 5 °C 1012.5 hPa ENE 20.1 km/h 38.6 km/h 90.4% 1.8 mm 76 W/m2
12:44 6.6 °C 5.2 °C 1012.5 hPa ENE 18.9 km/h 33.3 km/h 91% 1.6 mm 77 W/m2
12:49 6.6 °C 5.3 °C 1012.5 hPa ENE 20.9 km/h 33.8 km/h 91% 1.6 mm 81 W/m2
12:54 6.7 °C 5.3 °C 1012.5 hPa ENE 22.4 km/h 35.4 km/h 91% 1.8 mm 70 W/m2
12:59 6.7 °C 5.5 °C 1012.4 hPa ENE 20.1 km/h 35.4 km/h 91.8% 1.6 mm 98 W/m2
13:04 6.8 °C 5.5 °C 1012.4 hPa ENE 25.8 km/h 43.5 km/h 91.6% 1.6 mm 98 W/m2
13:09 6.7 °C 5.3 °C 1012.5 hPa ENE 33.3 km/h 53.8 km/h 90.7% 1.6 mm 116 W/m2
13:14 6.7 °C 5.2 °C 1012.5 hPa ENE 28 km/h 53.1 km/h 90.2% 1.6 mm 172 W/m2
13:19 6.8 °C 5.3 °C 1012.5 hPa ENE 27.9 km/h 51.5 km/h 90% 1.6 mm 179 W/m2
13:24 6.8 °C 5.4 °C 1012.4 hPa ENE 29.6 km/h 53.1 km/h 90.5% 1.6 mm 179 W/m2
13:29 6.8 °C 5.3 °C 1012.5 hPa ENE 36.3 km/h 64.9 km/h 90% 1.6 mm 169 W/m2
13:34 6.8 °C 5.2 °C 1012.4 hPa ENE 34.7 km/h 64.4 km/h 89.7% 1.6 mm 165 W/m2
13:39 6.7 °C 5.1 °C 1012.4 hPa ENE 30.8 km/h 56.3 km/h 89.2% 1.8 mm 165 W/m2
13:44 6.8 °C 5.3 °C 1012.4 hPa ENE 32.8 km/h 49.9 km/h 90% 1.6 mm 155 W/m2
13:49 6.8 °C 5.3 °C 1012.2 hPa ENE 30.4 km/h 50.1 km/h 90% 1.4 mm 165 W/m2
13:54 6.8 °C 5.1 °C 1012.3 hPa ENE 34.1 km/h 50.1 km/h 89.1% 1.4 mm 160 W/m2
13:59 6.8 °C 5.1 °C 1012.2 hPa ENE 32.5 km/h 53.8 km/h 89% 1.4 mm 160 W/m2
14:04 6.7 °C 5.1 °C 1012.2 hPa ENE 27.9 km/h 53.1 km/h 89.5% 1.6 mm 111 W/m2
14:09 6.6 °C 5.1 °C 1012.2 hPa ENE 26.9 km/h 50.1 km/h 90% 1.4 mm 84 W/m2
14:14 6.6 °C 5.1 °C 1012.2 hPa ENE 27.7 km/h 49.9 km/h 90.3% 1.6 mm 100 W/m2
14:19 6.5 °C 5.1 °C 1012.2 hPa ENE 28.2 km/h 53.8 km/h 91% 1.6 mm 114 W/m2
14:24 6.5 °C 5.1 °C 1012.1 hPa ENE 29.3 km/h 53.1 km/h 91% 1.6 mm 123 W/m2
14:29 6.5 °C 5 °C 1012.0 hPa ENE 31.6 km/h 53.8 km/h 89.8% 1.4 mm 123 W/m2
14:34 6.6 °C 5.1 °C 1012.0 hPa ENE 23.4 km/h 53.1 km/h 90% 1.4 mm 125 W/m2
14:39 6.7 °C 5.2 °C 1012.0 hPa ENE 25.4 km/h 50.1 km/h 90% 1.4 mm 141 W/m2
14:44 6.8 °C 5.3 °C 1011.9 hPa ENE 25.4 km/h 49.9 km/h 90% 1.4 mm 128 W/m2
14:49 6.9 °C 5.2 °C 1011.9 hPa ENE 33.9 km/h 50.1 km/h 89.2% 1.6 mm 118 W/m2
14:54 6.9 °C 5.2 °C 1012.0 hPa ENE 27.5 km/h 49.9 km/h 89% 1.6 mm 102 W/m2
14:59 6.9 °C 5.2 °C 1012.0 hPa ENE 26 km/h 43.5 km/h 89% 1.4 mm 97 W/m2
15:04 6.9 °C 5.3 °C 1011.9 hPa ENE 23.7 km/h 42.6 km/h 89.5% 1.4 mm 111 W/m2
15:09 6.8 °C 5.3 °C 1011.9 hPa ENE 22.7 km/h 41.8 km/h 90% 1.4 mm 118 W/m2
15:14 6.7 °C 5.2 °C 1011.9 hPa ENE 25.6 km/h 45.1 km/h 90% 1.4 mm 118 W/m2
15:19 6.6 °C 5.1 °C 1011.9 hPa ENE 24.4 km/h 45.1 km/h 90% 1.2 mm 107 W/m2
15:24 6.5 °C 5 °C 1011.8 hPa ENE 25.8 km/h 45.1 km/h 90% 1.2 mm 113 W/m2
15:29 6.5 °C 5.1 °C 1011.7 hPa ENE 24.2 km/h 43.5 km/h 90.3% 1.4 mm 113 W/m2
15:34 6.5 °C 5 °C 1011.7 hPa ENE 23 km/h 40.2 km/h 90% 1.4 mm 130 W/m2
15:39 6.4 °C 4.9 °C 1011.6 hPa ENE 24.1 km/h 42.6 km/h 90% 1.4 mm 137 W/m2
15:44 6.4 °C 5 °C 1011.6 hPa ENE 24.5 km/h 43.5 km/h 90.5% 1.4 mm 118 W/m2
15:49 6.4 °C 5.1 °C 1011.6 hPa ENE 21.7 km/h 43.5 km/h 91% 1.4 mm 81 W/m2
15:54 6.4 °C 5.1 °C 1011.6 hPa ENE 21.2 km/h 40.7 km/h 91% 1.4 mm 83 W/m2
15:59 6.4 °C 5.1 °C 1011.6 hPa ENE 20.9 km/h 42.6 km/h 91% 1.4 mm 70 W/m2
16:04 6.5 °C 5.1 °C 1011.6 hPa ENE 25.7 km/h 45.1 km/h 91% 1.2 mm 77 W/m2
16:09 6.5 °C 5.1 °C 1011.6 hPa ENE 26.8 km/h 45.1 km/h 91% 1.2 mm 79 W/m2
16:14 6.6 °C 5.2 °C 1011.6 hPa ENE 20.7 km/h 41.8 km/h 91% 1.2 mm 88 W/m2
16:19 6.6 °C 5.2 °C 1011.5 hPa ENE 25.8 km/h 43.5 km/h 91% 1.0 mm 100 W/m2
16:24 6.6 °C 5.2 °C 1011.5 hPa ENE 23.4 km/h 43.5 km/h 91% 1.0 mm 90 W/m2
16:29 6.7 °C 5.3 °C 1011.5 hPa ENE 23.5 km/h 46.7 km/h 91% 1.0 mm 86 W/m2
16:34 6.6 °C 5.3 °C 1011.5 hPa ENE 26.4 km/h 46.7 km/h 91% 0.8 mm 88 W/m2
16:39 6.7 °C 5.3 °C 1011.5 hPa ENE 24.6 km/h 40.2 km/h 91% 0.8 mm 90 W/m2
16:44 6.7 °C 5.3 °C 1011.5 hPa ENE 23.2 km/h 48.3 km/h 91% 0.6 mm 62 W/m2
16:49 6.7 °C 5.3 °C 1011.5 hPa ENE 26 km/h 48.3 km/h 91% 0.6 mm 65 W/m2
16:54 6.7 °C 5.3 °C 1011.5 hPa ENE 23.6 km/h 40.2 km/h 91% 0.4 mm 65 W/m2
16:59 6.8 °C 5.3 °C 1011.6 hPa ENE 26 km/h 43.5 km/h 90.5% 0.4 mm 56 W/m2
17:04 6.8 °C 5.3 °C 1011.7 hPa ENE 25 km/h 45.1 km/h 90% 0.4 mm 47 W/m2
17:09 6.8 °C 5.3 °C 1011.8 hPa ENE 24.1 km/h 45.1 km/h 90% 0.4 mm 49 W/m2
17:14 6.8 °C 5.3 °C 1011.8 hPa ENE 26.8 km/h 45.1 km/h 89.6% 0.2 mm 49 W/m2
17:19 6.9 °C 5.3 °C 1011.8 hPa ENE 25.1 km/h 40.2 km/h 89.4% 0.2 mm 47 W/m2
17:24 6.9 °C 5.2 °C 1011.8 hPa ENE 25.1 km/h 40.7 km/h 89% 0.2 mm 40 W/m2
17:29 6.9 °C 5.4 °C 1011.8 hPa ENE 25.9 km/h 45.1 km/h 89.8% 0.2 mm 56 W/m2
17:34 6.9 °C 5.4 °C 1011.8 hPa ENE 21.8 km/h 45.1 km/h 90% 0.2 mm 60 W/m2
17:39 6.9 °C 5.4 °C 1011.9 hPa ENE 25.8 km/h 43.5 km/h 90% 0.2 mm 60 W/m2
17:44 6.8 °C 5.3 °C 1012.0 hPa ENE 27.7 km/h 46.7 km/h 89.9% 0.2 mm 53 W/m2
17:49 6.8 °C 5.1 °C 1012.0 hPa ENE 29 km/h 46.7 km/h 89% 0.2 mm 40 W/m2
17:54 6.8 °C 5.1 °C 1012.1 hPa ENE 17.8 km/h 41.8 km/h 89% 0.2 mm 32 W/m2
17:59 6.8 °C 5.2 °C 1012.2 hPa ENE 15 km/h 35.4 km/h 89.6% 0.2 mm 25 W/m2
18:04 6.7 °C 5.2 °C 1012.2 hPa ENE 18.8 km/h 41.8 km/h 90% 0.2 mm 25 W/m2
18:09 6.7 °C 5.2 °C 1012.3 hPa ENE 22.3 km/h 43.5 km/h 89.7% 0.2 mm 21 W/m2
18:14 6.7 °C 5.1 °C 1012.3 hPa ENE 19.6 km/h 43.5 km/h 89% 0.2 mm 25 W/m2
18:19 6.7 °C 5.1 °C 1012.4 hPa ENE 20.4 km/h 42.6 km/h 89% 0.2 mm 46 W/m2
18:24 6.7 °C 5.1 °C 1012.4 hPa ENE 20.7 km/h 41.8 km/h 89% 0.2 mm 49 W/m2
18:29 6.7 °C 5.1 °C 1012.4 hPa NE 17.7 km/h 38.6 km/h 89% 0.2 mm 53 W/m2
18:34 6.7 °C 5.1 °C 1012.4 hPa ENE 23 km/h 42.6 km/h 89% 0.0 mm 53 W/m2
18:39 6.7 °C 5.1 °C 1012.5 hPa ENE 20.3 km/h 41.8 km/h 89% 0.0 mm 39 W/m2
18:44 6.7 °C 5 °C 1012.4 hPa NE 19.3 km/h 40.2 km/h 89.1% 0.0 mm 40 W/m2
18:49 6.7 °C 5.2 °C 1012.3 hPa NE 20.1 km/h 32.2 km/h 90% 0.2 mm 44 W/m2
18:54 6.6 °C 5.1 °C 1012.3 hPa NE 24.7 km/h 40.7 km/h 89.8% 0.2 mm 35 W/m2
18:59 6.5 °C 4.9 °C 1012.3 hPa NE 23.7 km/h 42.6 km/h 89.2% 0.2 mm 25 W/m2
19:04 6.5 °C 4.9 °C 1012.4 hPa NE 16.9 km/h 41.8 km/h 89.7% 0.2 mm 19 W/m2
19:09 6.5 °C 5 °C 1012.4 hPa ENE 16.4 km/h 33.8 km/h 90% 0.2 mm 12 W/m2
19:14 6.4 °C 4.9 °C 1012.5 hPa ENE 16.9 km/h 35.4 km/h 90% 0.2 mm 11 W/m2
19:19 6.4 °C 4.9 °C 1012.5 hPa NE 14.2 km/h 35.4 km/h 90% 0.4 mm 11 W/m2
19:24 6.4 °C 5 °C 1012.6 hPa ENE 11.5 km/h 24.1 km/h 90.8% 0.4 mm 11 W/m2
19:29 6.4 °C 5 °C 1012.7 hPa NE 9.7 km/h 20.9 km/h 91% 0.4 mm 7 W/m2
19:34 6.4 °C 5 °C 1012.7 hPa NE 12.5 km/h 24.1 km/h 91% 0.6 mm 0 W/m2
19:39 6.3 °C 5 °C 1012.8 hPa NE 10.6 km/h 24.1 km/h 91.2% 0.6 mm 0 W/m2
19:44 6.3 °C 5.1 °C 1012.8 hPa NE 7.9 km/h 19.3 km/h 91.7% 0.6 mm 0 W/m2
19:49 6.3 °C 5.1 °C 1012.8 hPa NE 10.5 km/h 18.5 km/h 92% 0.6 mm 0 W/m2
19:54 6.3 °C 5 °C 1012.9 hPa NE 9.3 km/h 20.9 km/h 92% 0.4 mm 0 W/m2
19:59 6.2 °C 5 °C 1012.9 hPa NE 11.7 km/h 20.9 km/h 92% 0.4 mm 0 W/m2
20:04 6.2 °C 5 °C 1012.9 hPa NE 11.4 km/h 20.9 km/h 92% 0.6 mm 0 W/m2
20:09 6.2 °C 4.9 °C 1012.8 hPa NE 9.2 km/h 19.3 km/h 92% 0.6 mm 0 W/m2
20:14 6.1 °C 4.9 °C 1012.8 hPa ENE 13.9 km/h 25.9 km/h 92% 0.6 mm 0 W/m2
20:19 6.1 °C 4.8 °C 1012.8 hPa NE 13.6 km/h 25.7 km/h 92% 0.4 mm 0 W/m2
20:24 6.1 °C 4.8 °C 1012.8 hPa ENE 11.5 km/h 24.1 km/h 92% 0.4 mm 0 W/m2
20:29 6.1 °C 4.9 °C 1012.8 hPa NE 15.2 km/h 25.9 km/h 92% 0.4 mm 0 W/m2
20:34 6.1 °C 4.8 °C 1012.9 hPa NE 13.3 km/h 25.7 km/h 91.4% 0.4 mm 0 W/m2
20:39 6.1 °C 4.8 °C 1013.1 hPa NE 9.8 km/h 22.5 km/h 91% 0.4 mm 0 W/m2
20:44 6.1 °C 4.8 °C 1013.2 hPa NNE 6.2 km/h 16.1 km/h 91% 0.4 mm 0 W/m2
20:49 6.2 °C 4.8 °C 1013.2 hPa North 3.5 km/h 11.3 km/h 91% 0.4 mm 0 W/m2
20:54 6.2 °C 5 °C 1013.3 hPa North 3.4 km/h 8 km/h 92% 0.4 mm 0 W/m2
20:59 6.2 °C 5 °C 1013.4 hPa NNW 3.9 km/h 9.7 km/h 92% 0.6 mm 0 W/m2
21:04 6.2 °C 5 °C 1013.4 hPa NNE 3.4 km/h 9.7 km/h 92% 0.6 mm 0 W/m2
21:09 6.2 °C 5 °C 1013.4 hPa North 5 km/h 9.7 km/h 92% 0.6 mm 0 W/m2
21:14 6.2 °C 5 °C 1013.4 hPa North 7.6 km/h 14.8 km/h 92% 1.0 mm 0 W/m2
21:19 6.1 °C 4.9 °C 1013.4 hPa NNE 6.9 km/h 14.8 km/h 92% 1.2 mm 0 W/m2
21:24 6.1 °C 4.9 °C 1013.3 hPa NNW 5.1 km/h 14.8 km/h 92% 1.4 mm 0 W/m2
21:29 6.1 °C 4.9 °C 1013.4 hPa North 3 km/h 9.7 km/h 92.3% 1.6 mm 0 W/m2
21:34 6 °C 5 °C 1013.5 hPa NW 5 km/h 9.7 km/h 93% 1.8 mm 0 W/m2
21:39 6 °C 4.9 °C 1013.6 hPa NW 4.4 km/h 9.7 km/h 92.8% 1.8 mm 0 W/m2
21:44 5.9 °C 4.8 °C 1013.5 hPa NW 3.2 km/h 8 km/h 93% 2.0 mm 0 W/m2
21:49 5.8 °C 4.8 °C 1013.4 hPa NW 2.6 km/h 6.4 km/h 93% 2.2 mm 0 W/m2
21:54 5.8 °C 4.8 °C 1013.4 hPa NNW 2.4 km/h 6.4 km/h 93% 2.2 mm 0 W/m2
21:59 5.8 °C 4.7 °C 1013.4 hPa NNW 4 km/h 8 km/h 93% 2.2 mm 0 W/m2
22:04 5.8 °C 4.7 °C 1013.4 hPa NW 4.8 km/h 11.3 km/h 93% 2.4 mm 0 W/m2
22:09 5.7 °C 4.7 °C 1013.3 hPa NW 4.3 km/h 11.3 km/h 93% 2.2 mm 0 W/m2
22:14 5.7 °C 4.6 °C 1013.3 hPa NW 6.8 km/h 9.7 km/h 93% 2.2 mm 0 W/m2
22:19 5.7 °C 4.6 °C 1013.4 hPa NNW 3.9 km/h 9.7 km/h 93% 2.0 mm 0 W/m2
22:24 5.6 °C 4.7 °C 1013.3 hPa NNW 2.3 km/h 8 km/h 93.7% 1.8 mm 0 W/m2
22:29 5.6 °C 4.7 °C 1013.4 hPa NNW 6.4 km/h 13 km/h 94% 1.6 mm 0 W/m2
22:34 5.6 °C 4.7 °C 1013.4 hPa NNW 3.8 km/h 12.9 km/h 94% 1.4 mm 0 W/m2
22:39 5.6 °C 4.7 °C 1013.3 hPa NNE 2.8 km/h 11.3 km/h 94% 1.4 mm 0 W/m2
22:44 5.6 °C 4.7 °C 1013.3 hPa NNW 4.2 km/h 9.7 km/h 94% 1.2 mm 0 W/m2
22:49 5.6 °C 4.7 °C 1013.3 hPa NNW 4.3 km/h 9.7 km/h 94% 1.2 mm 0 W/m2
22:54 5.6 °C 4.7 °C 1013.3 hPa North 3 km/h 9.7 km/h 94% 1.0 mm 0 W/m2
22:59 5.6 °C 4.7 °C 1013.3 hPa NNW 4.7 km/h 8 km/h 94% 1.0 mm 0 W/m2
23:04 5.6 °C 4.7 °C 1013.3 hPa NW 6 km/h 8 km/h 94% 0.8 mm 0 W/m2
23:09 5.5 °C 4.6 °C 1013.2 hPa WNW 5.1 km/h 9.7 km/h 94% 0.8 mm 0 W/m2
23:14 5.5 °C 4.6 °C 1013.2 hPa NW 5.5 km/h 9.7 km/h 94% 0.8 mm 0 W/m2
23:19 5.5 °C 4.6 °C 1013.1 hPa NW 6.5 km/h 11.3 km/h 94% 0.8 mm 0 W/m2
23:24 5.5 °C 4.6 °C 1013.1 hPa WNW 6.9 km/h 11.3 km/h 94% 0.8 mm 0 W/m2
23:29 5.5 °C 4.6 °C 1013.1 hPa NW 6 km/h 11.3 km/h 94% 0.8 mm 0 W/m2
23:34 5.5 °C 4.6 °C 1013.1 hPa WNW 6.6 km/h 14.8 km/h 94% 0.8 mm 0 W/m2
23:39 5.5 °C 4.6 °C 1013.1 hPa NW 6.4 km/h 14.5 km/h 94% 0.6 mm 0 W/m2
23:44 5.5 °C 4.6 °C 1013.1 hPa WNW 6.9 km/h 13 km/h 94% 0.8 mm 0 W/m2
23:49 5.5 °C 4.6 °C 1013.0 hPa NW 7.5 km/h 13 km/h 94% 0.8 mm 0 W/m2
Stazione Meteorologica MeteoMincio Rivalta s/M (MN)
Con i complimenti di Weather Underground - 4 mb


METEO PILLOLE
Maggior quantità di pioggia caduta in 72 ore
Cratère Commerson (2310 m) - Isola di Réunion
Tra il 24 e 26 febbraio 2007 caddero 3930mm di pioggia.

Do NOT follow this link or you will be banned from the site!